Time;durP1;ratioP1;P1;durP2;ratioP2;P2;SDS_P1;SDS_P2;PMS_P1;PMS_P2;Temp;Humidity;BMP_temperature;BMP_pressure;BME280_temperature;BME280_humidity;BME280_pressure;Samples;Min_cycle;Max_cycle;Signal;HPM_P1;HPM_P2
2022/12/21 00:00:18;;;;;;;31.02;12.07;;;;;;;;;;4967394;28;20035;-81
2022/12/21 00:02:44;;;;;;;25.95;11.50;;;;;;;;;;4957016;29;20038;-80
2022/12/21 00:05:10;;;;;;;26.90;11.50;;;;;;;;;;4940270;28;20393;-80
2022/12/21 00:07:36;;;;;;;21.40;10.57;;;;;;;;;;4956548;28;20059;-79
2022/12/21 00:10:03;;;;;;;27.80;10.80;;;;;;;;;;4976858;28;20030;-80
2022/12/21 00:12:29;;;;;;;23.88;12.00;;;;;;;;;;4975276;28;20106;-80
2022/12/21 00:14:55;;;;;;;27.98;10.38;;;;;;;;;;4975504;28;20030;-80
2022/12/21 00:17:21;;;;;;;24.98;9.32;;;;;;;;;;4976107;28;20015;-81
2022/12/21 00:19:47;;;;;;;25.27;12.35;;;;;;;;;;4976084;28;20027;-79
2022/12/21 00:22:13;;;;;;;24.63;10.70;;;;;;;;;;4974081;28;20031;-80
2022/12/21 00:24:39;;;;;;;19.00;9.85;;;;;;;;;;4975606;28;20023;-82
2022/12/21 00:27:05;;;;;;;23.20;11.05;;;;;;;;;;4974016;28;20113;-79
2022/12/21 00:29:31;;;;;;;20.23;9.13;;;;;;;;;;4975364;28;20080;-81
2022/12/21 00:31:57;;;;;;;24.58;10.95;;;;;;;;;;4973598;28;20027;-79
2022/12/21 00:34:23;;;;;;;14.90;9.25;;;;;;;;;;4957960;28;20026;-82
2022/12/21 00:36:50;;;;;;;20.27;9.90;;;;;;;;;;4974436;28;20022;-80
2022/12/21 00:39:17;;;;;;;17.90;8.93;;;;;;;;;;4978765;28;20031;-80
2022/12/21 00:41:43;;;;;;;21.38;10.68;;;;;;;;;;4978126;28;20038;-78
2022/12/21 00:44:10;;;;;;;24.02;11.68;;;;;;;;;;4980964;28;20057;-80
2022/12/21 00:46:36;;;;;;;22.73;10.40;;;;;;;;;;4981174;28;20046;-77
2022/12/21 00:49:04;;;;;;;21.33;10.57;;;;;;;;;;4977539;28;20031;-79
2022/12/21 00:51:30;;;;;;;24.33;11.52;;;;;;;;;;4974681;28;20027;-80
2022/12/21 00:53:57;;;;;;;23.13;10.52;;;;;;;;;;4971807;28;20575;-80
2022/12/21 00:56:24;;;;;;;19.17;10.20;;;;;;;;;;4974628;28;20027;-80
2022/12/21 00:58:50;;;;;;;18.70;10.50;;;;;;;;;;4975389;28;20401;-81
2022/12/21 01:01:19;;;;;;;18.77;10.35;;;;;;;;;;4974465;28;20031;-82
2022/12/21 01:03:45;;;;;;;24.25;11.27;;;;;;;;;;4960555;28;20042;-81
2022/12/21 01:06:16;;;;;;;21.40;10.20;;;;;;;;;;4955136;28;20020;-80
2022/12/21 01:08:42;;;;;;;18.30;9.73;;;;;;;;;;4978460;28;20031;-81
2022/12/21 01:11:10;;;;;;;18.65;9.65;;;;;;;;;;4981620;28;20540;-80
2022/12/21 01:13:36;;;;;;;20.65;9.65;;;;;;;;;;4980493;28;20370;-80
2022/12/21 01:16:02;;;;;;;19.88;9.88;;;;;;;;;;4982868;28;20077;-80
2022/12/21 01:18:28;;;;;;;22.83;11.02;;;;;;;;;;4982065;28;20109;-82
2022/12/21 01:20:55;;;;;;;22.98;9.82;;;;;;;;;;4981490;28;20035;-80
2022/12/21 01:23:21;;;;;;;22.67;10.80;;;;;;;;;;4983030;28;20054;-80
2022/12/21 01:25:48;;;;;;;20.85;8.82;;;;;;;;;;4982169;28;20189;-80
2022/12/21 01:28:14;;;;;;;18.90;9.05;;;;;;;;;;4980820;28;20031;-79
2022/12/21 01:30:40;;;;;;;23.95;10.27;;;;;;;;;;4981645;28;20023;-81
2022/12/21 01:33:07;;;;;;;20.63;9.50;;;;;;;;;;4982316;28;20113;-82
2022/12/21 01:35:33;;;;;;;18.00;9.32;;;;;;;;;;4983095;28;20042;-81
2022/12/21 01:37:59;;;;;;;21.20;10.45;;;;;;;;;;4989856;28;20039;-79
2022/12/21 01:40:29;;;;;;;23.77;10.48;;;;;;;;;;4983797;28;20031;-79
2022/12/21 01:42:55;;;;;;;22.95;10.10;;;;;;;;;;4983859;28;20117;-80
2022/12/21 01:45:35;;;;;;;25.27;10.05;;;;;;;;;;4983441;28;20023;-81
2022/12/21 01:48:03;;;;;;;21.42;10.63;;;;;;;;;;4983093;28;20052;-80
2022/12/21 01:50:41;;;;;;;23.75;11.32;;;;;;;;;;4980225;28;20062;-79
2022/12/21 01:53:16;;;;;;;27.35;11.88;;;;;;;;;;4981714;28;20019;-79
2022/12/21 01:55:45;;;;;;;26.60;13.38;;;;;;;;;;4980579;28;20031;-79
2022/12/21 01:58:11;;;;;;;26.23;13.55;;;;;;;;;;4981659;28;20027;-79
2022/12/21 02:00:38;;;;;;;28.00;12.75;;;;;;;;;;4978178;28;20070;-80
2022/12/21 02:03:05;;;;;;;25.10;11.85;;;;;;;;;;4982053;28;20026;-79
2022/12/21 02:05:35;;;;;;;24.15;11.38;;;;;;;;;;4980348;28;20031;-80
2022/12/21 02:08:03;;;;;;;21.75;11.50;;;;;;;;;;4978369;28;20027;-80
2022/12/21 02:10:29;;;;;;;28.67;12.05;;;;;;;;;;4980640;28;20019;-79
2022/12/21 02:12:59;;;;;;;24.73;12.55;;;;;;;;;;4981415;28;20034;-82
2022/12/21 02:15:34;;;;;;;29.33;12.40;;;;;;;;;;4980514;28;20037;-82
2022/12/21 02:18:08;;;;;;;22.02;10.93;;;;;;;;;;4980477;28;20244;-80
2022/12/21 02:20:47;;;;;;;23.52;12.90;;;;;;;;;;4982120;28;20026;-80
2022/12/21 02:23:13;;;;;;;25.10;11.07;;;;;;;;;;4983174;28;20027;-79
2022/12/21 02:25:58;;;;;;;21.05;10.75;;;;;;;;;;4981159;28;20528;-80
2022/12/21 02:28:30;;;;;;;22.05;10.93;;;;;;;;;;4981161;28;20033;-81
2022/12/21 02:31:00;;;;;;;27.52;11.43;;;;;;;;;;4981125;28;20031;-80
2022/12/21 02:33:26;;;;;;;26.10;11.48;;;;;;;;;;4982115;28;20038;-80
2022/12/21 02:35:52;;;;;;;26.25;11.73;;;;;;;;;;4979867;28;20031;-82
2022/12/21 02:38:27;;;;;;;23.58;11.45;;;;;;;;;;4979584;28;20065;-84
2022/12/21 02:40:56;;;;;;;20.50;11.55;;;;;;;;;;4986620;28;20029;-78
2022/12/21 02:46:26;;;;;;;28.63;13.10;;;;;;;;;;4983108;28;20049;-81
2022/12/21 02:48:55;;;;;;;22.63;9.90;;;;;;;;;;4980789;28;20031;-80
2022/12/21 02:51:41;;;;;;;23.08;11.27;;;;;;;;;;4982305;28;20027;-80
2022/12/21 02:54:08;;;;;;;23.98;10.32;;;;;;;;;;4979697;28;20053;-80
2022/12/21 02:56:34;;;;;;;25.38;10.77;;;;;;;;;;4984640;28;20113;-80
2022/12/21 02:59:00;;;;;;;28.00;11.23;;;;;;;;;;4985451;28;20117;-80
2022/12/21 03:01:26;;;;;;;29.95;12.15;;;;;;;;;;4984862;28;20026;-80
2022/12/21 03:04:00;;;;;;;23.95;11.52;;;;;;;;;;4985593;28;20034;-80
2022/12/21 03:06:35;;;;;;;24.83;10.52;;;;;;;;;;4985772;28;20038;-80
2022/12/21 03:09:10;;;;;;;21.63;10.35;;;;;;;;;;4984763;28;20019;-79
2022/12/21 03:12:11;;;;;;;27.13;11.65;;;;;;;;;;4974917;28;20031;-80
2022/12/21 03:14:40;;;;;;;25.67;11.90;;;;;;;;;;4906655;29;20179;-79
2022/12/21 03:17:26;;;;;;;24.42;11.55;;;;;;;;;;4953500;28;20035;-80
2022/12/21 03:20:06;;;;;;;28.33;12.77;;;;;;;;;;4985648;28;20030;-81
2022/12/21 03:22:34;;;;;;;22.00;10.13;;;;;;;;;;4984828;28;20022;-80
2022/12/21 03:25:21;;;;;;;21.95;10.93;;;;;;;;;;4983963;28;20117;-78
2022/12/21 03:27:49;;;;;;;29.88;12.13;;;;;;;;;;4985373;28;20089;-80
2022/12/21 03:30:17;;;;;;;26.08;12.45;;;;;;;;;;4985719;28;20019;-80
2022/12/21 03:32:50;;;;;;;30.73;11.57;;;;;;;;;;4984124;28;20023;-79
2022/12/21 03:35:37;;;;;;;27.20;11.88;;;;;;;;;;4984503;28;20362;-79
2022/12/21 03:38:06;;;;;;;25.88;12.00;;;;;;;;;;4965725;28;20038;-80
2022/12/21 03:40:34;;;;;;;25.45;11.23;;;;;;;;;;4965479;28;20035;-80
2022/12/21 03:43:03;;;;;;;29.77;11.55;;;;;;;;;;4984763;28;20038;-79
2022/12/21 03:45:32;;;;;;;30.35;11.93;;;;;;;;;;4984885;28;20031;-80
2022/12/21 03:47:58;;;;;;;29.38;11.70;;;;;;;;;;4985569;28;20390;-80
2022/12/21 03:50:25;;;;;;;23.10;12.45;;;;;;;;;;4983471;28;20054;-80
2022/12/21 03:52:55;;;;;;;24.77;10.18;;;;;;;;;;4983609;28;20245;-81
2022/12/21 03:55:23;;;;;;;23.45;10.75;;;;;;;;;;4983157;28;20031;-80
2022/12/21 03:57:50;;;;;;;23.17;10.55;;;;;;;;;;4984577;28;20033;-79
2022/12/21 04:00:16;;;;;;;21.60;11.00;;;;;;;;;;4983527;28;20458;-80
2022/12/21 04:02:57;;;;;;;27.05;11.95;;;;;;;;;;4984219;28;20031;-80
2022/12/21 04:05:30;;;;;;;21.98;10.48;;;;;;;;;;4982883;28;20050;-80
2022/12/21 04:07:56;;;;;;;20.20;10.27;;;;;;;;;;4980887;28;20112;-80
2022/12/21 04:10:23;;;;;;;27.60;11.02;;;;;;;;;;4977152;28;20027;-80
2022/12/21 04:12:49;;;;;;;28.60;11.50;;;;;;;;;;4966300;28;20027;-79
2022/12/21 04:15:18;;;;;;;21.63;10.63;;;;;;;;;;4975103;28;20035;-79
2022/12/21 04:17:46;;;;;;;20.98;10.00;;;;;;;;;;4985589;28;20049;-80
2022/12/21 04:20:13;;;;;;;30.52;11.57;;;;;;;;;;4984926;28;20027;-80
2022/12/21 04:28:29;;;;;;;30.35;12.20;;;;;;;;;;4985537;28;20046;-80
2022/12/21 04:30:56;;;;;;;24.35;10.68;;;;;;;;;;4984866;28;20027;-80
2022/12/21 04:33:23;;;;;;;25.00;11.27;;;;;;;;;;4983039;28;20046;-80
2022/12/21 04:38:35;;;;;;;25.52;11.60;;;;;;;;;;4983492;28;20089;-80
2022/12/21 04:41:02;;;;;;;31.60;13.82;;;;;;;;;;4983797;28;20080;-79
2022/12/21 04:43:28;;;;;;;27.52;12.43;;;;;;;;;;4987866;28;20035;-79
2022/12/21 04:46:04;;;;;;;34.85;14.55;;;;;;;;;;4988588;28;20034;-79
2022/12/21 04:48:30;;;;;;;27.73;12.75;;;;;;;;;;4984771;28;20041;-79
2022/12/21 04:50:56;;;;;;;26.80;12.35;;;;;;;;;;4980185;28;20152;-80
2022/12/21 04:53:22;;;;;;;30.23;13.30;;;;;;;;;;4982278;28;20025;-78
2022/12/21 04:55:48;;;;;;;24.38;10.57;;;;;;;;;;4979508;28;20505;-79
2022/12/21 04:58:15;;;;;;;23.20;10.73;;;;;;;;;;4974461;28;20031;-80
2022/12/21 05:00:41;;;;;;;32.70;12.50;;;;;;;;;;4984662;28;20018;-80
2022/12/21 05:03:07;;;;;;;29.42;12.02;;;;;;;;;;4983568;28;20397;-80
2022/12/21 05:05:33;;;;;;;23.38;11.02;;;;;;;;;;4982805;28;20064;-80
2022/12/21 05:07:59;;;;;;;21.38;10.70;;;;;;;;;;4983876;28;20440;-81
2022/12/21 05:10:25;;;;;;;23.25;10.55;;;;;;;;;;4982931;28;20033;-80
2022/12/21 05:12:52;;;;;;;26.42;10.70;;;;;;;;;;4981950;28;20062;-79
2022/12/21 05:15:18;;;;;;;27.70;11.00;;;;;;;;;;4983167;28;20049;-79
2022/12/21 05:17:44;;;;;;;22.80;9.75;;;;;;;;;;4982761;28;20019;-78
2022/12/21 05:20:10;;;;;;;26.92;10.48;;;;;;;;;;4979725;28;20030;-80
2022/12/21 05:22:36;;;;;;;19.55;8.93;;;;;;;;;;4981290;28;20034;-80
2022/12/21 05:25:02;;;;;;;24.92;12.95;;;;;;;;;;4984411;28;20026;-79
2022/12/21 05:27:28;;;;;;;27.67;11.35;;;;;;;;;;4985460;28;20042;-80
2022/12/21 05:29:54;;;;;;;25.60;10.23;;;;;;;;;;4985869;28;20455;-80
2022/12/21 05:32:20;;;;;;;25.50;11.20;;;;;;;;;;4983314;28;20031;-80
2022/12/21 05:34:46;;;;;;;24.88;10.70;;;;;;;;;;4987459;28;20015;-78
2022/12/21 05:37:12;;;;;;;26.38;11.57;;;;;;;;;;4988411;28;20042;-80
2022/12/21 05:39:38;;;;;;;24.48;10.70;;;;;;;;;;4985124;28;20050;-80
2022/12/21 05:42:04;;;;;;;27.67;11.52;;;;;;;;;;4985874;28;20077;-81
2022/12/21 05:44:31;;;;;;;24.02;10.48;;;;;;;;;;4983894;28;20030;-81
2022/12/21 05:46:57;;;;;;;25.38;10.50;;;;;;;;;;4983757;28;20034;-79
2022/12/21 05:49:23;;;;;;;27.15;11.90;;;;;;;;;;4982204;28;20033;-80
2022/12/21 05:51:49;;;;;;;26.67;12.05;;;;;;;;;;4979323;28;20074;-79
2022/12/21 05:54:16;;;;;;;23.38;10.80;;;;;;;;;;4982084;28;20030;-80
2022/12/21 05:56:43;;;;;;;30.50;12.05;;;;;;;;;;4979142;28;20507;-80
2022/12/21 05:59:09;;;;;;;23.65;11.70;;;;;;;;;;4974651;28;20088;-80
2022/12/21 06:01:35;;;;;;;27.63;11.88;;;;;;;;;;4980807;28;20035;-80
2022/12/21 06:04:01;;;;;;;29.90;13.32;;;;;;;;;;4982032;28;20029;-80
2022/12/21 06:06:27;;;;;;;26.17;11.13;;;;;;;;;;4982519;28;20019;-80
2022/12/21 06:08:53;;;;;;;24.27;11.88;;;;;;;;;;4981416;28;20039;-80
2022/12/21 06:11:21;;;;;;;32.78;12.20;;;;;;;;;;4997614;28;20031;-79
2022/12/21 06:13:47;;;;;;;30.67;13.15;;;;;;;;;;4988373;28;20042;-80
2022/12/21 06:16:14;;;;;;;26.90;11.77;;;;;;;;;;4987896;28;20086;-81
2022/12/21 06:18:41;;;;;;;23.42;11.57;;;;;;;;;;4988208;28;20030;-80
2022/12/21 06:21:07;;;;;;;26.58;11.38;;;;;;;;;;4986500;28;20042;-81
2022/12/21 06:23:33;;;;;;;27.67;11.95;;;;;;;;;;4975681;28;20023;-81
2022/12/21 06:26:01;;;;;;;30.90;11.57;;;;;;;;;;4981789;28;20501;-80
2022/12/21 06:28:27;;;;;;;30.60;12.57;;;;;;;;;;4972600;28;20038;-81
2022/12/21 06:30:54;;;;;;;23.67;10.52;;;;;;;;;;4979942;28;20041;-81
2022/12/21 06:33:21;;;;;;;34.00;13.77;;;;;;;;;;4974123;28;20365;-80
2022/12/21 06:35:47;;;;;;;27.10;12.85;;;;;;;;;;4977059;28;20030;-81
2022/12/21 06:38:13;;;;;;;26.50;12.23;;;;;;;;;;4981263;28;20058;-81
2022/12/21 06:40:39;;;;;;;25.92;12.40;;;;;;;;;;4976085;28;20035;-80
2022/12/21 06:43:05;;;;;;;30.35;12.77;;;;;;;;;;4989866;28;20082;-79
2022/12/21 06:45:31;;;;;;;30.25;13.85;;;;;;;;;;4987620;28;20031;-80
2022/12/21 06:47:57;;;;;;;24.83;10.55;;;;;;;;;;4985527;28;20133;-80
2022/12/21 06:50:23;;;;;;;25.38;12.95;;;;;;;;;;4977379;28;20050;-80
2022/12/21 06:52:49;;;;;;;23.90;12.07;;;;;;;;;;4976181;28;20026;-81
2022/12/21 06:55:16;;;;;;;20.65;11.32;;;;;;;;;;4972169;28;20019;-80
2022/12/21 06:57:42;;;;;;;26.20;12.35;;;;;;;;;;4982556;28;20033;-80
2022/12/21 07:00:13;;;;;;;27.27;10.63;;;;;;;;;;4980178;28;20035;-80
2022/12/21 07:02:39;;;;;;;28.13;12.48;;;;;;;;;;4981704;28;20022;-81
2022/12/21 07:05:06;;;;;;;27.73;12.48;;;;;;;;;;4981472;28;20027;-80
2022/12/21 07:07:32;;;;;;;24.25;11.93;;;;;;;;;;4981557;28;20031;-79
2022/12/21 07:09:58;;;;;;;29.27;12.82;;;;;;;;;;4978228;28;20034;-81
2022/12/21 07:12:24;;;;;;;33.72;13.27;;;;;;;;;;4987454;28;20059;-80
2022/12/21 07:14:50;;;;;;;27.75;11.05;;;;;;;;;;4983181;28;20159;-80
2022/12/21 07:17:16;;;;;;;29.90;13.45;;;;;;;;;;4980864;28;20031;-80
2022/12/21 07:19:42;;;;;;;29.77;14.73;;;;;;;;;;4980982;28;20031;-80
2022/12/21 07:22:08;;;;;;;29.08;13.32;;;;;;;;;;4982525;28;20045;-80
2022/12/21 07:24:34;;;;;;;32.25;14.35;;;;;;;;;;4981984;28;20075;-80
2022/12/21 07:27:00;;;;;;;30.20;14.38;;;;;;;;;;4982144;28;20051;-79
2022/12/21 07:29:26;;;;;;;30.00;13.20;;;;;;;;;;4980710;28;20111;-81
2022/12/21 07:31:52;;;;;;;24.83;11.98;;;;;;;;;;4981068;28;20041;-80
2022/12/21 07:34:18;;;;;;;30.08;13.30;;;;;;;;;;4981235;28;20775;-80
2022/12/21 07:36:44;;;;;;;27.73;13.32;;;;;;;;;;4982157;28;20019;-80
2022/12/21 07:39:10;;;;;;;27.38;12.82;;;;;;;;;;4986168;28;20091;-79
2022/12/21 07:41:36;;;;;;;28.73;12.43;;;;;;;;;;4984369;28;20030;-79
2022/12/21 07:44:02;;;;;;;32.22;13.07;;;;;;;;;;4985429;28;20377;-81
2022/12/21 07:46:28;;;;;;;34.05;13.00;;;;;;;;;;4984786;28;20508;-80
2022/12/21 07:48:54;;;;;;;28.85;13.13;;;;;;;;;;4984876;28;20029;-80
2022/12/21 07:51:20;;;;;;;36.42;13.45;;;;;;;;;;4985483;28;20038;-80
2022/12/21 07:53:46;;;;;;;32.25;13.35;;;;;;;;;;4986181;28;20034;-80
2022/12/21 07:56:16;;;;;;;31.55;14.45;;;;;;;;;;4984260;28;20105;-80
2022/12/21 07:58:42;;;;;;;28.98;14.25;;;;;;;;;;4967599;28;20035;-81
2022/12/21 08:01:12;;;;;;;28.13;12.80;;;;;;;;;;4965483;29;20070;-81
2022/12/21 08:03:39;;;;;;;29.63;13.68;;;;;;;;;;4965524;29;20028;-80
2022/12/21 08:06:06;;;;;;;29.38;12.95;;;;;;;;;;4973890;28;20430;-80
2022/12/21 08:08:32;;;;;;;30.02;13.65;;;;;;;;;;4985813;28;20031;-80
2022/12/21 08:10:58;;;;;;;32.13;14.77;;;;;;;;;;4984881;28;20058;-80
2022/12/21 08:13:24;;;;;;;30.05;13.65;;;;;;;;;;4984924;28;20027;-78
2022/12/21 08:15:58;;;;;;;26.65;13.27;;;;;;;;;;4984877;28;20375;-81
2022/12/21 08:18:24;;;;;;;26.63;13.05;;;;;;;;;;4984894;28;20243;-80
2022/12/21 08:20:50;;;;;;;27.52;12.30;;;;;;;;;;4985801;28;20054;-81
2022/12/21 08:23:16;;;;;;;34.25;14.32;;;;;;;;;;4983900;28;20027;-80
2022/12/21 08:25:42;;;;;;;30.13;12.77;;;;;;;;;;4983941;28;20062;-80
2022/12/21 08:28:08;;;;;;;28.88;12.48;;;;;;;;;;4983755;28;20039;-80
2022/12/21 08:30:34;;;;;;;29.25;12.57;;;;;;;;;;4985615;28;20050;-80
2022/12/21 08:33:00;;;;;;;27.50;12.07;;;;;;;;;;4985239;28;20069;-78
2022/12/21 08:35:28;;;;;;;27.65;12.20;;;;;;;;;;4989437;28;20026;-78
2022/12/21 08:37:54;;;;;;;25.48;12.15;;;;;;;;;;4988658;28;20026;-79
2022/12/21 08:40:21;;;;;;;20.52;11.48;;;;;;;;;;4986650;28;20034;-80
2022/12/21 08:42:47;;;;;;;26.88;12.98;;;;;;;;;;4984556;28;20042;-80
2022/12/21 08:45:13;;;;;;;24.95;13.70;;;;;;;;;;4981492;28;20396;-80
2022/12/21 08:47:40;;;;;;;27.25;13.52;;;;;;;;;;4986372;28;20046;-80
2022/12/21 08:50:06;;;;;;;26.08;12.20;;;;;;;;;;4983997;28;20030;-80
2022/12/21 08:52:32;;;;;;;22.27;11.52;;;;;;;;;;4985442;28;20059;-80
2022/12/21 08:54:58;;;;;;;22.67;11.07;;;;;;;;;;4985172;28;20022;-82
2022/12/21 08:57:24;;;;;;;24.48;9.88;;;;;;;;;;4984530;28;20035;-79
2022/12/21 08:59:51;;;;;;;26.60;13.32;;;;;;;;;;4983001;28;20038;-80
2022/12/21 09:02:17;;;;;;;23.33;11.40;;;;;;;;;;4985732;28;20085;-80
2022/12/21 09:04:43;;;;;;;27.77;13.73;;;;;;;;;;4985295;28;20113;-81
2022/12/21 09:07:09;;;;;;;31.13;12.27;;;;;;;;;;4985536;28;20026;-78
2022/12/21 09:09:35;;;;;;;24.45;12.90;;;;;;;;;;4984788;28;20650;-80
2022/12/21 09:12:01;;;;;;;22.17;12.40;;;;;;;;;;4983414;28;20026;-79
2022/12/21 09:14:28;;;;;;;27.80;11.80;;;;;;;;;;4984851;28;20019;-80
2022/12/21 09:16:54;;;;;;;27.50;12.88;;;;;;;;;;4985677;28;20421;-79
2022/12/21 09:19:20;;;;;;;24.27;12.15;;;;;;;;;;4985597;28;20058;-79
2022/12/21 09:21:46;;;;;;;26.00;11.82;;;;;;;;;;4985470;28;20027;-80
2022/12/21 09:24:13;;;;;;;27.38;15.10;;;;;;;;;;4984276;28;20050;-80
2022/12/21 09:26:41;;;;;;;29.00;12.27;;;;;;;;;;4981692;28;20065;-79
2022/12/21 09:29:09;;;;;;;33.28;14.40;;;;;;;;;;4984154;28;20090;-79
2022/12/21 09:31:35;;;;;;;29.33;13.10;;;;;;;;;;4981976;28;20023;-80
2022/12/21 09:34:01;;;;;;;28.13;12.05;;;;;;;;;;4984071;28;20019;-80
2022/12/21 09:36:27;;;;;;;32.42;14.48;;;;;;;;;;4984284;28;20502;-80
2022/12/21 09:38:54;;;;;;;28.45;11.95;;;;;;;;;;4983590;28;20033;-80
2022/12/21 09:41:26;;;;;;;28.40;14.40;;;;;;;;;;4982161;28;20030;-80
2022/12/21 09:44:18;;;;;;;27.38;12.85;;;;;;;;;;4984067;28;20027;-80
2022/12/21 09:46:46;;;;;;;29.05;12.63;;;;;;;;;;4983136;28;20027;-81
2022/12/21 09:49:16;;;;;;;23.45;11.35;;;;;;;;;;4983811;28;20031;-80
2022/12/21 09:51:45;;;;;;;29.70;14.00;;;;;;;;;;4984234;28;20019;-80
2022/12/21 09:54:19;;;;;;;32.35;12.13;;;;;;;;;;4984104;28;20027;-79
2022/12/21 09:56:48;;;;;;;29.15;12.38;;;;;;;;;;4983631;28;20043;-80
2022/12/21 09:59:15;;;;;;;30.05;12.82;;;;;;;;;;4983610;28;20348;-80
2022/12/21 10:01:51;;;;;;;33.17;13.20;;;;;;;;;;4983357;28;20057;-80
2022/12/21 10:04:20;;;;;;;32.08;12.63;;;;;;;;;;4984872;28;20057;-79
2022/12/21 10:06:49;;;;;;;29.63;13.73;;;;;;;;;;4983569;28;20038;-79
2022/12/21 10:09:24;;;;;;;29.33;12.55;;;;;;;;;;4982946;28;20043;-79
2022/12/21 10:11:59;;;;;;;22.73;11.52;;;;;;;;;;4983650;28;20030;-80
2022/12/21 10:14:37;;;;;;;28.42;12.05;;;;;;;;;;4981430;28;20054;-80
2022/12/21 10:17:03;;;;;;;26.27;12.77;;;;;;;;;;4982773;28;20110;-80
2022/12/21 10:19:32;;;;;;;24.60;11.43;;;;;;;;;;4983978;28;20030;-80
2022/12/21 10:21:58;;;;;;;28.13;14.80;;;;;;;;;;4983132;28;20046;-79
2022/12/21 10:24:29;;;;;;;26.77;12.57;;;;;;;;;;4983736;28;20106;-80
2022/12/21 10:26:59;;;;;;;28.25;13.60;;;;;;;;;;4985416;28;20106;-79
2022/12/21 10:29:32;;;;;;;27.58;12.88;;;;;;;;;;4984530;28;20093;-80
2022/12/21 10:31:58;;;;;;;;;;;;;;;;;;4985287;28;20026;-80
2022/12/21 10:34:25;;;;;;;32.80;12.38;;;;;;;;;;4985584;28;19973;-78
2022/12/21 10:36:55;;;;;;;33.40;12.90;;;;;;;;;;4986441;28;20026;-79
2022/12/21 10:39:21;;;;;;;27.65;13.45;;;;;;;;;;4983418;28;20405;-80
2022/12/21 10:41:50;;;;;;;28.30;12.48;;;;;;;;;;4985169;28;20026;-79
2022/12/21 10:44:16;;;;;;;26.63;12.25;;;;;;;;;;4984108;28;20034;-79
2022/12/21 10:46:42;;;;;;;29.35;14.25;;;;;;;;;;4982630;28;20081;-80
2022/12/21 10:49:14;;;;;;;32.53;13.52;;;;;;;;;;4982724;28;20058;-80
2022/12/21 10:51:40;;;;;;;24.95;10.85;;;;;;;;;;4983570;28;20019;-79
2022/12/21 10:54:07;;;;;;;29.20;12.27;;;;;;;;;;4982657;28;20031;-80
2022/12/21 10:56:35;;;;;;;24.52;12.45;;;;;;;;;;4980533;28;20027;-81
2022/12/21 10:59:05;;;;;;;30.80;13.15;;;;;;;;;;4982841;28;20081;-81
2022/12/21 11:01:33;;;;;;;29.55;15.80;;;;;;;;;;4982278;28;20073;-81
2022/12/21 11:04:07;;;;;;;28.20;13.07;;;;;;;;;;4983272;28;20027;-78
2022/12/21 11:06:33;;;;;;;26.38;13.98;;;;;;;;;;4981402;28;20041;-80
2022/12/21 11:08:59;;;;;;;26.77;14.25;;;;;;;;;;4983239;28;20037;-80
2022/12/21 11:11:28;;;;;;;31.25;13.13;;;;;;;;;;4983598;28;20030;-80
2022/12/21 11:14:02;;;;;;;30.52;13.18;;;;;;;;;;4987231;28;20536;-80
2022/12/21 11:16:30;;;;;;;31.38;14.25;;;;;;;;;;4986574;28;20042;-81
2022/12/21 11:19:01;;;;;;;24.88;12.50;;;;;;;;;;4983560;28;20041;-80
2022/12/21 11:21:27;;;;;;;27.98;12.43;;;;;;;;;;4987195;28;20026;-79
2022/12/21 11:23:57;;;;;;;28.52;13.15;;;;;;;;;;4987029;28;20031;-80
2022/12/21 11:26:25;;;;;;;33.25;13.23;;;;;;;;;;4987783;28;20058;-80
2022/12/21 11:28:58;;;;;;;29.10;13.77;;;;;;;;;;4985972;28;20042;-79
2022/12/21 11:31:26;;;;;;;29.10;12.73;;;;;;;;;;4987071;28;20078;-79
2022/12/21 11:33:52;;;;;;;25.08;12.18;;;;;;;;;;4987972;28;20082;-80
2022/12/21 11:36:19;;;;;;;31.65;13.40;;;;;;;;;;4986910;28;20031;-79
2022/12/21 11:38:45;;;;;;;29.02;13.07;;;;;;;;;;4985898;28;20031;-80
2022/12/21 11:41:23;;;;;;;29.27;12.85;;;;;;;;;;4986246;28;20026;-78
2022/12/21 11:43:50;;;;;;;26.52;12.88;;;;;;;;;;4986284;28;20031;-81
2022/12/21 11:46:34;;;;;;;32.22;14.82;;;;;;;;;;4986240;28;20150;-79
2022/12/21 11:49:00;;;;;;;34.97;15.43;;;;;;;;;;4983418;28;20090;-80
2022/12/21 11:51:26;;;;;;;32.63;14.77;;;;;;;;;;4983048;28;20543;-83
2022/12/21 11:54:05;;;;;;;30.08;13.10;;;;;;;;;;4983777;28;20102;-80
2022/12/21 11:56:35;;;;;;;31.52;14.18;;;;;;;;;;4976340;28;20059;-80
2022/12/21 11:59:01;;;;;;;30.13;13.32;;;;;;;;;;4985329;28;20025;-80
2022/12/21 12:01:54;;;;;;;36.33;16.52;;;;;;;;;;4979994;28;20090;-80
2022/12/21 12:04:23;;;;;;;30.95;13.80;;;;;;;;;;4967735;28;20095;-79
2022/12/21 12:06:49;;;;;;;32.90;13.65;;;;;;;;;;4984038;28;20481;-80
2022/12/21 12:09:24;;;;;;;29.35;13.52;;;;;;;;;;4984434;28;20497;-79
2022/12/21 12:11:50;;;;;;;32.30;13.70;;;;;;;;;;4966462;29;20035;-80
2022/12/21 12:14:33;;;;;;;28.77;12.68;;;;;;;;;;4982671;28;20035;-80
2022/12/21 12:17:12;;;;;;;31.40;14.65;;;;;;;;;;4980097;28;20030;-83
2022/12/21 12:20:04;;;;;;;31.48;17.00;;;;;;;;;;4982843;28;20026;-80
2022/12/21 12:22:47;;;;;;;33.53;16.15;;;;;;;;;;4968548;28;20031;-80
2022/12/21 12:25:32;;;;;;;35.92;15.63;;;;;;;;;;4966047;28;20112;-83
2022/12/21 12:28:04;;;;;;;33.75;14.02;;;;;;;;;;4981743;28;20062;-80
2022/12/21 12:30:38;;;;;;;28.15;13.43;;;;;;;;;;4986470;28;20696;-79
2022/12/21 12:33:14;;;;;;;30.77;13.32;;;;;;;;;;5000742;28;20030;-80
2022/12/21 12:35:42;;;;;;;29.50;12.80;;;;;;;;;;4990871;28;20059;-81
2022/12/21 12:38:20;;;;;;;30.85;15.50;;;;;;;;;;4987174;28;20508;-80
2022/12/21 12:40:58;;;;;;;27.80;12.60;;;;;;;;;;4984939;28;20046;-80
2022/12/21 12:43:24;;;;;;;31.58;14.07;;;;;;;;;;4974228;28;20039;-80
2022/12/21 12:46:09;;;;;;;31.42;13.63;;;;;;;;;;4971359;28;20042;-80
2022/12/21 12:48:46;;;;;;;34.28;14.07;;;;;;;;;;4964709;28;20103;-80
2022/12/21 12:51:38;;;;;;;34.58;17.10;;;;;;;;;;4967097;28;20065;-79
2022/12/21 12:54:07;;;;;;;27.85;12.82;;;;;;;;;;4962413;28;20054;-81
2022/12/21 12:56:33;;;;;;;35.90;16.80;;;;;;;;;;4983201;28;20027;-81
2022/12/21 12:59:14;;;;;;;29.98;12.68;;;;;;;;;;4984579;28;20143;-79
2022/12/21 13:01:59;;;;;;;28.27;13.95;;;;;;;;;;4986549;28;20043;-80
2022/12/21 13:04:34;;;;;;;31.73;13.05;;;;;;;;;;4987888;28;20098;-80
2022/12/21 13:07:00;;;;;;;33.88;16.95;;;;;;;;;;4984665;28;20027;-81
2022/12/21 13:09:32;;;;;;;30.10;13.60;;;;;;;;;;4984680;28;20119;-81
2022/12/21 13:12:12;;;;;;;34.92;16.77;;;;;;;;;;4983223;28;20031;-81
2022/12/21 13:14:44;;;;;;;35.97;13.45;;;;;;;;;;4984037;28;20055;-81
2022/12/21 13:17:10;;;;;;;;;;;;;;;;;;4984509;28;20027;-79
2022/12/21 13:19:38;;;;;;;29.98;13.75;;;;;;;;;;4983766;28;19956;-80
2022/12/21 13:22:05;;;;;;;30.40;13.65;;;;;;;;;;4983200;28;20057;-79
2022/12/21 13:24:38;;;;;;;34.63;14.80;;;;;;;;;;4981600;28;20117;-80
2022/12/21 13:27:10;;;;;;;37.30;14.68;;;;;;;;;;4983513;28;20494;-79
2022/12/21 13:29:41;;;;;;;37.30;16.70;;;;;;;;;;4981602;28;20031;-80
2022/12/21 13:32:27;;;;;;;33.90;15.00;;;;;;;;;;4981048;28;20035;-80
2022/12/21 13:34:56;;;;;;;31.48;14.90;;;;;;;;;;4982030;28;20505;-81
2022/12/21 13:37:23;;;;;;;37.53;17.58;;;;;;;;;;4980062;28;20400;-80
2022/12/21 13:39:59;;;;;;;31.42;14.82;;;;;;;;;;4973194;28;20042;-78
2022/12/21 13:42:30;;;;;;;31.48;14.45;;;;;;;;;;4980076;28;20097;-79
2022/12/21 13:44:59;;;;;;;32.15;14.20;;;;;;;;;;4978797;28;20509;-79
2022/12/21 13:47:26;;;;;;;33.38;15.10;;;;;;;;;;4981439;28;20456;-80
2022/12/21 13:50:05;;;;;;;37.75;15.52;;;;;;;;;;4973222;28;20046;-80
2022/12/21 13:52:37;;;;;;;32.20;14.05;;;;;;;;;;4979421;28;20118;-81
2022/12/21 13:55:12;;;;;;;38.47;16.05;;;;;;;;;;4963967;28;20019;-81
2022/12/21 13:57:44;;;;;;;30.30;15.70;;;;;;;;;;4964103;28;20049;-80
2022/12/21 14:00:22;;;;;;;36.67;17.13;;;;;;;;;;4980729;28;20030;-80
2022/12/21 14:02:57;;;;;;;27.80;13.18;;;;;;;;;;4979975;28;20529;-80
2022/12/21 14:05:27;;;;;;;33.35;15.75;;;;;;;;;;4980099;28;20067;-80
2022/12/21 14:08:12;;;;;;;31.60;14.65;;;;;;;;;;4981127;28;20066;-81
2022/12/21 14:10:50;;;;;;;46.00;18.45;;;;;;;;;;4961985;28;20096;-80
2022/12/21 14:13:19;;;;;;;35.75;18.77;;;;;;;;;;4961697;28;20034;-80
2022/12/21 14:15:45;;;;;;;40.58;18.10;;;;;;;;;;4962933;28;20031;-81
2022/12/21 14:18:14;;;;;;;40.38;16.45;;;;;;;;;;4979194;28;20041;-80
2022/12/21 14:20:41;;;;;;;39.90;16.30;;;;;;;;;;4961936;28;20034;-81
2022/12/21 14:23:14;;;;;;;37.13;17.48;;;;;;;;;;4962153;29;20553;-80
2022/12/21 14:25:40;;;;;;;;;;;;;;;;;;4963840;28;20047;-78
2022/12/21 14:28:41;;;;;;;37.65;15.05;;;;;;;;;;4975947;28;19918;-81
2022/12/21 14:31:10;;;;;;;29.70;12.82;;;;;;;;;;4904664;29;20052;-80
2022/12/21 14:33:42;;;;;;;26.23;15.20;;;;;;;;;;4888036;29;20068;-81
2022/12/21 14:36:10;;;;;;;32.50;14.23;;;;;;;;;;4903480;29;20104;-80
2022/12/21 14:38:36;;;;;;;37.67;15.07;;;;;;;;;;4903124;29;20044;-80
2022/12/21 14:41:08;;;;;;;37.20;17.48;;;;;;;;;;4903333;29;20047;-80